Nazca — ZDGK2 — position and weather

sailwx.info

Track history (hours):
 
Tides and Currents Weather Stations Pressure Air Temp Water Temp Dewpoint Dewpoint Depression Visibility Wind Speed Wind Dir Waves Ship Positions

Nazca

Last reported at 2017-Jul-20 14:54 UTC. Time now 2017-Aug-17 23:26 UTC.
Position N 37°48' E 023°46'.
Warning: this ship's position is 28 days out of date.

Length 21 m.

Type: Sailing vessel. MMSI: 236255000.

Date/timePositionNaut miles runAvg speedWind from/ knotsBaromVisibWave heightAir tempDewpointWater temp
2017-Jul-20 14:54N 37°48' E 023°46'1 0.6
2017-Jul-20 13:46N 37°47' E 023°46'3 9.9
2017-Jul-20 13:30N 37°49' E 023°44'5 9.7
2017-Jul-20 13:00N 37°53' E 023°40'5 9.6
2017-Jul-20 12:30N 37°57' E 023°36'2 0.5
2017-Jul-20 09:17N 37°58' E 023°34'0 0.3
2017-Jul-20 09:00N 37°58' E 023°34'4 8.1
2017-Jul-20 08:30N 37°55' E 023°38'4 8.7
2017-Jul-20 08:00N 37°52' E 023°42'4 8.0
2017-Jul-20 07:29N 37°48' E 023°45'1 0.1
2017-Jul-19 18:26N 37°48' E 023°46'0 0.0
2017-Jul-19 17:56N 37°48' E 023°46'0 0.0
2017-Jul-19 17:26N 37°48' E 023°46'0 0.0
2017-Jul-19 16:56N 37°48' E 023°46'0 0.0
2017-Jul-19 16:26N 37°48' E 023°46'0 0.0
2017-Jul-19 15:29N 37°48' E 023°46'0 0.0
2017-Jul-19 14:56N 37°48' E 023°46'0 0.0
2017-Jul-19 14:08N 37°48' E 023°46'0 0.0
2017-Jul-19 13:56N 37°48' E 023°46'0 0.0
2017-Jul-19 13:26N 37°48' E 023°46'0 0.0
2017-Jul-19 12:38N 37°48' E 023°46'  
Track history (hours):
 
Tides and Currents Weather Stations Pressure Air Temp Water Temp Dewpoint Dewpoint Depression Visibility Wind Speed Wind Dir Waves Ship Positions

Nazca

Last reported at 2017-Jul-20 14:54 UTC. Time now 2017-Aug-17 23:26 UTC.
Position N 37°48' E 023°46'.
Warning: this ship's position is 28 days out of date.

Length 21 m.

Type: Sailing vessel. MMSI: 236255000.

Date/timePositionNaut miles runAvg speedWind from/ knotsBaromVisibWave heightAir tempDewpointWater temp
2017-Jul-20 14:54N 37°48' E 023°46'1 0.6
2017-Jul-20 13:46N 37°47' E 023°46'3 9.9
2017-Jul-20 13:30N 37°49' E 023°44'5 9.7
2017-Jul-20 13:00N 37°53' E 023°40'5 9.6
2017-Jul-20 12:30N 37°57' E 023°36'2 0.5
2017-Jul-20 09:17N 37°58' E 023°34'0 0.3
2017-Jul-20 09:00N 37°58' E 023°34'4 8.1
2017-Jul-20 08:30N 37°55' E 023°38'4 8.7
2017-Jul-20 08:00N 37°52' E 023°42'4 8.0
2017-Jul-20 07:29N 37°48' E 023°45'1 0.1
2017-Jul-19 18:26N 37°48' E 023°46'0 0.0
2017-Jul-19 17:56N 37°48' E 023°46'0 0.0
2017-Jul-19 17:26N 37°48' E 023°46'0 0.0
2017-Jul-19 16:56N 37°48' E 023°46'0 0.0
2017-Jul-19 16:26N 37°48' E 023°46'0 0.0
2017-Jul-19 15:29N 37°48' E 023°46'0 0.0
2017-Jul-19 14:56N 37°48' E 023°46'0 0.0
2017-Jul-19 14:08N 37°48' E 023°46'0 0.0
2017-Jul-19 13:56N 37°48' E 023°46'0 0.0
2017-Jul-19 13:26N 37°48' E 023°46'0 0.0
2017-Jul-19 12:38N 37°48' E 023°46'  

Dump ship's entire track history